sensor_id;sensor_type;location;lat;lon;timestamp;P1;durP1;ratioP1;P2;durP2;ratioP2
73697;SDS011;62004;42.566;23.164;2022-08-25T00:01:17;20.27;;;8.50;;
73697;SDS011;62004;42.566;23.164;2022-08-25T00:03:44;21.55;;;9.68;;
73697;SDS011;62004;42.566;23.164;2022-08-25T00:06:10;18.42;;;9.20;;
73697;SDS011;62004;42.566;23.164;2022-08-25T00:08:36;19.92;;;9.60;;
73697;SDS011;62004;42.566;23.164;2022-08-25T00:11:07;23.60;;;8.57;;
73697;SDS011;62004;42.566;23.164;2022-08-25T00:13:38;18.98;;;9.88;;
73697;SDS011;62004;42.566;23.164;2022-08-25T00:16:05;21.52;;;8.50;;
73697;SDS011;62004;42.566;23.164;2022-08-25T00:18:30;22.80;;;9.02;;
73697;SDS011;62004;42.566;23.164;2022-08-25T00:20:57;20.00;;;9.65;;
73697;SDS011;62004;42.566;23.164;2022-08-25T00:23:22;21.30;;;9.52;;
73697;SDS011;62004;42.566;23.164;2022-08-25T00:25:48;26.17;;;10.00;;
73697;SDS011;62004;42.566;23.164;2022-08-25T00:28:15;27.33;;;9.93;;
73697;SDS011;62004;42.566;23.164;2022-08-25T00:30:42;24.65;;;9.95;;
73697;SDS011;62004;42.566;23.164;2022-08-25T00:33:08;21.33;;;8.70;;
73697;SDS011;62004;42.566;23.164;2022-08-25T00:35:33;25.75;;;9.98;;
73697;SDS011;62004;42.566;23.164;2022-08-25T00:37:59;15.80;;;9.05;;
73697;SDS011;62004;42.566;23.164;2022-08-25T00:40:25;19.85;;;8.75;;
73697;SDS011;62004;42.566;23.164;2022-08-25T00:42:53;24.60;;;9.40;;
73697;SDS011;62004;42.566;23.164;2022-08-25T00:45:20;17.40;;;9.95;;
73697;SDS011;62004;42.566;23.164;2022-08-25T00:47:46;25.35;;;9.93;;
73697;SDS011;62004;42.566;23.164;2022-08-25T00:50:11;21.08;;;9.45;;
73697;SDS011;62004;42.566;23.164;2022-08-25T00:52:38;22.85;;;10.25;;
73697;SDS011;62004;42.566;23.164;2022-08-25T00:57:47;16.85;;;8.77;;
73697;SDS011;62004;42.566;23.164;2022-08-25T01:02:45;21.17;;;10.98;;
73697;SDS011;62004;42.566;23.164;2022-08-25T01:05:11;27.70;;;10.82;;
73697;SDS011;62004;42.566;23.164;2022-08-25T01:07:37;21.77;;;9.50;;
73697;SDS011;62004;42.566;23.164;2022-08-25T01:10:04;19.13;;;9.80;;
73697;SDS011;62004;42.566;23.164;2022-08-25T01:12:31;20.60;;;10.30;;
73697;SDS011;62004;42.566;23.164;2022-08-25T01:14:57;25.60;;;10.32;;
73697;SDS011;62004;42.566;23.164;2022-08-25T01:17:23;23.20;;;10.60;;
73697;SDS011;62004;42.566;23.164;2022-08-25T01:19:51;25.70;;;10.18;;
73697;SDS011;62004;42.566;23.164;2022-08-25T01:22:17;19.08;;;11.05;;
73697;SDS011;62004;42.566;23.164;2022-08-25T01:24:49;20.90;;;9.90;;
73697;SDS011;62004;42.566;23.164;2022-08-25T01:27:21;21.45;;;10.13;;
73697;SDS011;62004;42.566;23.164;2022-08-25T01:29:47;22.25;;;9.88;;
73697;SDS011;62004;42.566;23.164;2022-08-25T01:32:13;20.38;;;10.20;;
73697;SDS011;62004;42.566;23.164;2022-08-25T01:34:41;22.63;;;8.77;;
73697;SDS011;62004;42.566;23.164;2022-08-25T01:37:08;23.63;;;9.68;;
73697;SDS011;62004;42.566;23.164;2022-08-25T01:39:34;25.85;;;10.23;;
73697;SDS011;62004;42.566;23.164;2022-08-25T01:44:31;23.80;;;9.82;;
73697;SDS011;62004;42.566;23.164;2022-08-25T01:46:59;19.73;;;9.27;;
73697;SDS011;62004;42.566;23.164;2022-08-25T01:49:25;20.35;;;9.15;;
73697;SDS011;62004;42.566;23.164;2022-08-25T01:51:52;19.75;;;9.82;;
73697;SDS011;62004;42.566;23.164;2022-08-25T01:54:26;21.98;;;9.68;;
73697;SDS011;62004;42.566;23.164;2022-08-25T01:56:51;25.25;;;9.70;;
73697;SDS011;62004;42.566;23.164;2022-08-25T01:59:17;17.23;;;8.98;;
73697;SDS011;62004;42.566;23.164;2022-08-25T02:01:44;22.48;;;9.65;;
73697;SDS011;62004;42.566;23.164;2022-08-25T02:04:10;21.05;;;8.98;;
73697;SDS011;62004;42.566;23.164;2022-08-25T02:06:36;17.63;;;8.63;;
73697;SDS011;62004;42.566;23.164;2022-08-25T02:09:13;24.42;;;9.63;;
73697;SDS011;62004;42.566;23.164;2022-08-25T02:11:40;25.10;;;9.65;;
73697;SDS011;62004;42.566;23.164;2022-08-25T02:14:07;19.98;;;8.40;;
73697;SDS011;62004;42.566;23.164;2022-08-25T02:16:35;15.48;;;8.23;;
73697;SDS011;62004;42.566;23.164;2022-08-25T02:19:04;18.17;;;8.27;;
73697;SDS011;62004;42.566;23.164;2022-08-25T02:21:33;16.95;;;8.93;;
73697;SDS011;62004;42.566;23.164;2022-08-25T02:23:59;22.00;;;9.05;;
73697;SDS011;62004;42.566;23.164;2022-08-25T02:26:25;16.10;;;9.57;;
73697;SDS011;62004;42.566;23.164;2022-08-25T02:28:51;20.33;;;11.40;;
73697;SDS011;62004;42.566;23.164;2022-08-25T02:31:18;23.17;;;12.38;;
73697;SDS011;62004;42.566;23.164;2022-08-25T02:33:45;25.23;;;11.82;;
73697;SDS011;62004;42.566;23.164;2022-08-25T02:36:10;24.15;;;12.70;;
73697;SDS011;62004;42.566;23.164;2022-08-25T02:38:36;26.75;;;12.52;;
73697;SDS011;62004;42.566;23.164;2022-08-25T02:41:07;26.35;;;12.15;;
73697;SDS011;62004;42.566;23.164;2022-08-25T02:43:36;26.38;;;13.43;;
73697;SDS011;62004;42.566;23.164;2022-08-25T02:46:03;23.33;;;12.50;;
73697;SDS011;62004;42.566;23.164;2022-08-25T02:48:28;23.80;;;13.63;;
73697;SDS011;62004;42.566;23.164;2022-08-25T02:50:54;29.30;;;13.23;;
73697;SDS011;62004;42.566;23.164;2022-08-25T02:53:25;21.30;;;13.70;;
73697;SDS011;62004;42.566;23.164;2022-08-25T02:55:51;24.25;;;13.10;;
73697;SDS011;62004;42.566;23.164;2022-08-25T02:58:17;26.70;;;13.25;;
73697;SDS011;62004;42.566;23.164;2022-08-25T03:00:42;19.15;;;12.68;;
73697;SDS011;62004;42.566;23.164;2022-08-25T03:03:07;20.90;;;12.90;;
73697;SDS011;62004;42.566;23.164;2022-08-25T03:05:33;21.92;;;13.50;;
73697;SDS011;62004;42.566;23.164;2022-08-25T03:07:58;23.08;;;11.80;;
73697;SDS011;62004;42.566;23.164;2022-08-25T03:10:24;16.60;;;11.48;;
73697;SDS011;62004;42.566;23.164;2022-08-25T03:12:50;23.90;;;9.48;;
73697;SDS011;62004;42.566;23.164;2022-08-25T03:15:16;21.17;;;9.85;;
73697;SDS011;62004;42.566;23.164;2022-08-25T03:17:42;19.77;;;9.25;;
73697;SDS011;62004;42.566;23.164;2022-08-25T03:20:09;27.60;;;10.93;;
73697;SDS011;62004;42.566;23.164;2022-08-25T03:22:34;22.67;;;10.32;;
73697;SDS011;62004;42.566;23.164;2022-08-25T03:25:01;21.73;;;9.90;;
73697;SDS011;62004;42.566;23.164;2022-08-25T03:27:46;20.95;;;10.20;;
73697;SDS011;62004;42.566;23.164;2022-08-25T03:30:13;18.83;;;9.85;;
73697;SDS011;62004;42.566;23.164;2022-08-25T03:32:40;20.52;;;9.65;;
73697;SDS011;62004;42.566;23.164;2022-08-25T03:35:06;22.27;;;10.00;;
73697;SDS011;62004;42.566;23.164;2022-08-25T03:37:32;19.33;;;9.43;;
73697;SDS011;62004;42.566;23.164;2022-08-25T03:39:58;21.77;;;9.43;;
73697;SDS011;62004;42.566;23.164;2022-08-25T03:42:24;19.60;;;9.60;;
73697;SDS011;62004;42.566;23.164;2022-08-25T03:44:49;25.33;;;10.68;;
73697;SDS011;62004;42.566;23.164;2022-08-25T03:47:16;22.60;;;10.60;;
73697;SDS011;62004;42.566;23.164;2022-08-25T03:49:41;17.42;;;10.07;;
73697;SDS011;62004;42.566;23.164;2022-08-25T03:52:07;19.45;;;9.52;;
73697;SDS011;62004;42.566;23.164;2022-08-25T03:54:32;18.95;;;10.63;;
73697;SDS011;62004;42.566;23.164;2022-08-25T03:56:57;22.50;;;10.18;;
73697;SDS011;62004;42.566;23.164;2022-08-25T03:59:23;17.88;;;9.70;;
73697;SDS011;62004;42.566;23.164;2022-08-25T04:01:49;20.38;;;10.88;;
73697;SDS011;62004;42.566;23.164;2022-08-25T04:04:15;23.15;;;10.50;;
73697;SDS011;62004;42.566;23.164;2022-08-25T04:06:41;17.90;;;9.85;;
73697;SDS011;62004;42.566;23.164;2022-08-25T04:09:07;20.25;;;9.70;;
73697;SDS011;62004;42.566;23.164;2022-08-25T04:11:34;19.50;;;9.48;;
73697;SDS011;62004;42.566;23.164;2022-08-25T04:14:00;21.42;;;9.32;;
73697;SDS011;62004;42.566;23.164;2022-08-25T04:16:30;19.48;;;10.05;;
73697;SDS011;62004;42.566;23.164;2022-08-25T04:18:57;24.98;;;10.20;;
73697;SDS011;62004;42.566;23.164;2022-08-25T04:21:25;18.95;;;8.73;;
73697;SDS011;62004;42.566;23.164;2022-08-25T04:23:52;23.85;;;9.90;;
73697;SDS011;62004;42.566;23.164;2022-08-25T04:26:27;17.90;;;9.93;;
73697;SDS011;62004;42.566;23.164;2022-08-25T04:28:55;18.63;;;9.98;;
73697;SDS011;62004;42.566;23.164;2022-08-25T04:31:24;21.13;;;10.13;;
73697;SDS011;62004;42.566;23.164;2022-08-25T04:33:50;20.50;;;9.73;;
73697;SDS011;62004;42.566;23.164;2022-08-25T04:36:16;21.60;;;10.88;;
73697;SDS011;62004;42.566;23.164;2022-08-25T04:38:42;21.58;;;10.20;;
73697;SDS011;62004;42.566;23.164;2022-08-25T04:41:10;19.02;;;10.40;;
73697;SDS011;62004;42.566;23.164;2022-08-25T04:43:36;19.45;;;10.15;;
73697;SDS011;62004;42.566;23.164;2022-08-25T04:46:08;21.48;;;11.75;;
73697;SDS011;62004;42.566;23.164;2022-08-25T04:48:36;29.25;;;13.73;;
73697;SDS011;62004;42.566;23.164;2022-08-25T04:51:10;25.23;;;11.43;;
73697;SDS011;62004;42.566;23.164;2022-08-25T04:53:38;20.58;;;10.05;;
73697;SDS011;62004;42.566;23.164;2022-08-25T04:56:07;22.38;;;11.25;;
73697;SDS011;62004;42.566;23.164;2022-08-25T04:58:35;19.90;;;10.00;;
73697;SDS011;62004;42.566;23.164;2022-08-25T05:01:08;25.70;;;10.93;;
73697;SDS011;62004;42.566;23.164;2022-08-25T05:03:34;17.90;;;10.98;;
73697;SDS011;62004;42.566;23.164;2022-08-25T05:06:00;20.55;;;9.65;;
73697;SDS011;62004;42.566;23.164;2022-08-25T05:08:27;16.73;;;10.43;;
73697;SDS011;62004;42.566;23.164;2022-08-25T05:10:53;22.73;;;10.38;;
73697;SDS011;62004;42.566;23.164;2022-08-25T05:13:21;24.15;;;11.20;;
73697;SDS011;62004;42.566;23.164;2022-08-25T05:15:51;20.55;;;10.02;;
73697;SDS011;62004;42.566;23.164;2022-08-25T05:18:18;18.10;;;9.88;;
73697;SDS011;62004;42.566;23.164;2022-08-25T05:20:45;21.40;;;10.15;;
73697;SDS011;62004;42.566;23.164;2022-08-25T05:23:11;15.10;;;9.85;;
73697;SDS011;62004;42.566;23.164;2022-08-25T05:25:36;23.35;;;9.98;;
73697;SDS011;62004;42.566;23.164;2022-08-25T05:28:02;19.83;;;9.95;;
73697;SDS011;62004;42.566;23.164;2022-08-25T05:30:28;20.52;;;8.77;;
73697;SDS011;62004;42.566;23.164;2022-08-25T05:32:54;17.98;;;9.27;;
73697;SDS011;62004;42.566;23.164;2022-08-25T05:35:19;35.55;;;16.05;;
73697;SDS011;62004;42.566;23.164;2022-08-25T05:37:45;26.33;;;11.55;;
73697;SDS011;62004;42.566;23.164;2022-08-25T05:40:12;26.50;;;10.30;;
73697;SDS011;62004;42.566;23.164;2022-08-25T05:42:38;16.50;;;8.98;;
73697;SDS011;62004;42.566;23.164;2022-08-25T05:45:04;24.70;;;10.82;;
73697;SDS011;62004;42.566;23.164;2022-08-25T05:47:30;22.90;;;11.00;;
73697;SDS011;62004;42.566;23.164;2022-08-25T05:49:55;20.85;;;10.13;;
73697;SDS011;62004;42.566;23.164;2022-08-25T05:52:21;21.48;;;9.23;;
73697;SDS011;62004;42.566;23.164;2022-08-25T05:54:46;15.35;;;9.13;;
73697;SDS011;62004;42.566;23.164;2022-08-25T05:57:12;18.70;;;9.55;;
73697;SDS011;62004;42.566;23.164;2022-08-25T05:59:38;16.85;;;9.30;;
73697;SDS011;62004;42.566;23.164;2022-08-25T06:02:04;20.67;;;10.05;;
73697;SDS011;62004;42.566;23.164;2022-08-25T06:04:48;15.85;;;9.30;;
73697;SDS011;62004;42.566;23.164;2022-08-25T06:07:13;20.60;;;10.05;;
73697;SDS011;62004;42.566;23.164;2022-08-25T06:09:40;20.35;;;11.15;;
73697;SDS011;62004;42.566;23.164;2022-08-25T06:12:06;20.75;;;10.35;;
73697;SDS011;62004;42.566;23.164;2022-08-25T06:14:32;22.23;;;10.00;;
73697;SDS011;62004;42.566;23.164;2022-08-25T06:17:00;20.83;;;9.63;;
73697;SDS011;62004;42.566;23.164;2022-08-25T06:19:26;22.15;;;9.82;;
73697;SDS011;62004;42.566;23.164;2022-08-25T06:21:52;22.08;;;9.30;;
73697;SDS011;62004;42.566;23.164;2022-08-25T06:24:19;26.65;;;9.50;;
73697;SDS011;62004;42.566;23.164;2022-08-25T06:26:44;24.23;;;8.98;;
73697;SDS011;62004;42.566;23.164;2022-08-25T06:29:10;20.85;;;8.90;;
73697;SDS011;62004;42.566;23.164;2022-08-25T06:31:38;20.73;;;8.80;;
73697;SDS011;62004;42.566;23.164;2022-08-25T06:34:04;17.77;;;8.65;;
73697;SDS011;62004;42.566;23.164;2022-08-25T06:36:30;19.08;;;8.27;;
73697;SDS011;62004;42.566;23.164;2022-08-25T06:38:56;17.15;;;8.35;;
73697;SDS011;62004;42.566;23.164;2022-08-25T06:41:21;19.55;;;9.27;;
73697;SDS011;62004;42.566;23.164;2022-08-25T06:43:49;21.05;;;8.73;;
73697;SDS011;62004;42.566;23.164;2022-08-25T06:46:15;21.23;;;8.07;;
73697;SDS011;62004;42.566;23.164;2022-08-25T06:48:42;17.15;;;7.60;;
73697;SDS011;62004;42.566;23.164;2022-08-25T06:51:09;23.05;;;8.00;;
73697;SDS011;62004;42.566;23.164;2022-08-25T06:53:36;21.92;;;7.22;;
73697;SDS011;62004;42.566;23.164;2022-08-25T06:56:01;17.05;;;7.10;;
73697;SDS011;62004;42.566;23.164;2022-08-25T06:58:28;12.90;;;6.85;;
73697;SDS011;62004;42.566;23.164;2022-08-25T07:00:54;18.80;;;6.43;;
73697;SDS011;62004;42.566;23.164;2022-08-25T07:03:20;15.75;;;5.70;;
73697;SDS011;62004;42.566;23.164;2022-08-25T07:05:52;15.55;;;5.82;;
73697;SDS011;62004;42.566;23.164;2022-08-25T07:08:19;18.02;;;6.20;;
73697;SDS011;62004;42.566;23.164;2022-08-25T07:10:45;15.52;;;5.50;;
73697;SDS011;62004;42.566;23.164;2022-08-25T07:13:11;16.08;;;5.32;;
73697;SDS011;62004;42.566;23.164;2022-08-25T07:15:37;17.42;;;5.53;;
73697;SDS011;62004;42.566;23.164;2022-08-25T07:18:04;18.05;;;5.35;;
73697;SDS011;62004;42.566;23.164;2022-08-25T07:20:29;15.55;;;4.63;;
73697;SDS011;62004;42.566;23.164;2022-08-25T07:22:55;29.25;;;15.73;;
73697;SDS011;62004;42.566;23.164;2022-08-25T07:25:21;21.58;;;8.10;;
73697;SDS011;62004;42.566;23.164;2022-08-25T07:27:47;18.80;;;7.10;;
73697;SDS011;62004;42.566;23.164;2022-08-25T07:30:15;16.88;;;8.23;;
73697;SDS011;62004;42.566;23.164;2022-08-25T07:32:40;20.33;;;6.78;;
73697;SDS011;62004;42.566;23.164;2022-08-25T07:35:06;22.35;;;8.48;;
73697;SDS011;62004;42.566;23.164;2022-08-25T07:37:45;18.15;;;6.40;;
73697;SDS011;62004;42.566;23.164;2022-08-25T07:40:14;19.98;;;7.07;;
73697;SDS011;62004;42.566;23.164;2022-08-25T07:42:45;21.38;;;7.20;;
73697;SDS011;62004;42.566;23.164;2022-08-25T07:45:11;21.38;;;6.60;;
73697;SDS011;62004;42.566;23.164;2022-08-25T07:47:37;32.83;;;8.45;;
73697;SDS011;62004;42.566;23.164;2022-08-25T07:50:04;18.17;;;7.40;;
73697;SDS011;62004;42.566;23.164;2022-08-25T07:52:31;24.85;;;7.13;;
73697;SDS011;62004;42.566;23.164;2022-08-25T07:54:57;19.83;;;8.35;;
73697;SDS011;62004;42.566;23.164;2022-08-25T07:57:22;16.23;;;6.82;;
73697;SDS011;62004;42.566;23.164;2022-08-25T07:59:50;16.42;;;7.03;;
73697;SDS011;62004;42.566;23.164;2022-08-25T08:02:16;18.98;;;6.70;;
73697;SDS011;62004;42.566;23.164;2022-08-25T08:04:42;23.33;;;7.05;;
73697;SDS011;62004;42.566;23.164;2022-08-25T08:07:10;22.73;;;6.47;;
73697;SDS011;62004;42.566;23.164;2022-08-25T08:09:36;21.85;;;6.65;;
73697;SDS011;62004;42.566;23.164;2022-08-25T08:12:02;31.80;;;6.95;;
73697;SDS011;62004;42.566;23.164;2022-08-25T08:14:29;29.40;;;7.55;;
73697;SDS011;62004;42.566;23.164;2022-08-25T08:16:54;20.05;;;6.57;;
73697;SDS011;62004;42.566;23.164;2022-08-25T08:19:21;40.80;;;9.07;;
73697;SDS011;62004;42.566;23.164;2022-08-25T08:21:47;28.63;;;7.72;;
73697;SDS011;62004;42.566;23.164;2022-08-25T08:24:14;25.65;;;8.15;;
73697;SDS011;62004;42.566;23.164;2022-08-25T08:26:40;31.75;;;8.27;;
73697;SDS011;62004;42.566;23.164;2022-08-25T08:29:05;32.00;;;6.80;;
73697;SDS011;62004;42.566;23.164;2022-08-25T08:31:31;40.20;;;8.35;;
73697;SDS011;62004;42.566;23.164;2022-08-25T08:33:57;26.05;;;6.38;;
73697;SDS011;62004;42.566;23.164;2022-08-25T08:36:22;28.85;;;7.03;;
73697;SDS011;62004;42.566;23.164;2022-08-25T08:38:49;22.92;;;6.22;;
73697;SDS011;62004;42.566;23.164;2022-08-25T08:44:18;35.10;;;6.65;;
73697;SDS011;62004;42.566;23.164;2022-08-25T08:47:05;29.95;;;6.10;;
73697;SDS011;62004;42.566;23.164;2022-08-25T08:52:45;23.60;;;6.05;;
73697;SDS011;62004;42.566;23.164;2022-08-25T08:57:52;34.00;;;6.40;;
73697;SDS011;62004;42.566;23.164;2022-08-25T09:00:22;23.85;;;6.63;;
73697;SDS011;62004;42.566;23.164;2022-08-25T09:02:51;26.92;;;7.00;;
73697;SDS011;62004;42.566;23.164;2022-08-25T09:05:18;20.42;;;4.80;;
73697;SDS011;62004;42.566;23.164;2022-08-25T09:07:46;23.52;;;6.20;;
73697;SDS011;62004;42.566;23.164;2022-08-25T09:10:17;18.00;;;5.72;;
73697;SDS011;62004;42.566;23.164;2022-08-25T09:13:04;17.58;;;5.28;;
73697;SDS011;62004;42.566;23.164;2022-08-25T09:18:37;29.08;;;5.95;;
73697;SDS011;62004;42.566;23.164;2022-08-25T09:32:15;28.40;;;5.28;;
73697;SDS011;62004;42.566;23.164;2022-08-25T09:34:41;26.23;;;5.45;;
73697;SDS011;62004;42.566;23.164;2022-08-25T09:37:07;24.35;;;4.60;;
73697;SDS011;62004;42.566;23.164;2022-08-25T09:39:33;32.35;;;5.10;;
73697;SDS011;62004;42.566;23.164;2022-08-25T09:41:59;26.15;;;4.55;;
73697;SDS011;62004;42.566;23.164;2022-08-25T09:44:32;23.80;;;4.50;;
73697;SDS011;62004;42.566;23.164;2022-08-25T09:47:05;20.75;;;4.70;;
73697;SDS011;62004;42.566;23.164;2022-08-25T09:49:38;28.85;;;4.75;;
73697;SDS011;62004;42.566;23.164;2022-08-25T09:57:36;22.10;;;4.15;;
73697;SDS011;62004;42.566;23.164;2022-08-25T10:00:09;26.45;;;4.75;;
73697;SDS011;62004;42.566;23.164;2022-08-25T10:06:11;19.60;;;4.75;;
73697;SDS011;62004;42.566;23.164;2022-08-25T10:11:08;20.95;;;4.43;;
73697;SDS011;62004;42.566;23.164;2022-08-25T10:14:01;18.15;;;4.53;;
73697;SDS011;62004;42.566;23.164;2022-08-25T10:16:42;21.63;;;4.75;;
73697;SDS011;62004;42.566;23.164;2022-08-25T10:19:09;18.33;;;4.85;;
73697;SDS011;62004;42.566;23.164;2022-08-25T10:21:37;18.92;;;5.60;;
73697;SDS011;62004;42.566;23.164;2022-08-25T10:24:04;21.83;;;5.68;;
73697;SDS011;62004;42.566;23.164;2022-08-25T10:29:37;25.70;;;6.65;;
73697;SDS011;62004;42.566;23.164;2022-08-25T10:32:26;22.63;;;5.07;;
73697;SDS011;62004;42.566;23.164;2022-08-25T10:35:17;15.55;;;5.10;;
73697;SDS011;62004;42.566;23.164;2022-08-25T10:38:02;21.33;;;5.90;;
73697;SDS011;62004;42.566;23.164;2022-08-25T10:40:41;19.48;;;4.47;;
73697;SDS011;62004;42.566;23.164;2022-08-25T10:45:59;12.35;;;2.72;;
73697;SDS011;62004;42.566;23.164;2022-08-25T10:56:28;27.45;;;9.77;;
73697;SDS011;62004;42.566;23.164;2022-08-25T11:02:17;23.25;;;5.70;;
73697;SDS011;62004;42.566;23.164;2022-08-25T11:07:25;24.70;;;8.00;;
73697;SDS011;62004;42.566;23.164;2022-08-25T11:09:56;32.65;;;17.15;;
73697;SDS011;62004;42.566;23.164;2022-08-25T11:12:35;23.35;;;6.55;;
73697;SDS011;62004;42.566;23.164;2022-08-25T11:15:18;29.80;;;13.88;;
73697;SDS011;62004;42.566;23.164;2022-08-25T11:20:26;23.35;;;6.82;;
73697;SDS011;62004;42.566;23.164;2022-08-25T11:25:42;23.80;;;12.98;;
73697;SDS011;62004;42.566;23.164;2022-08-25T11:30:35;25.15;;;7.05;;
73697;SDS011;62004;42.566;23.164;2022-08-25T11:33:02;43.92;;;12.05;;
73697;SDS011;62004;42.566;23.164;2022-08-25T11:35:41;44.80;;;28.65;;
73697;SDS011;62004;42.566;23.164;2022-08-25T11:41:13;31.35;;;14.95;;
73697;SDS011;62004;42.566;23.164;2022-08-25T11:43:53;33.85;;;19.10;;
73697;SDS011;62004;42.566;23.164;2022-08-25T11:51:55;31.95;;;13.32;;
73697;SDS011;62004;42.566;23.164;2022-08-25T11:54:22;28.30;;;11.77;;
73697;SDS011;62004;42.566;23.164;2022-08-25T12:02:30;17.63;;;6.10;;
73697;SDS011;62004;42.566;23.164;2022-08-25T12:04:56;16.90;;;3.55;;
73697;SDS011;62004;42.566;23.164;2022-08-25T12:08:04;25.83;;;4.25;;
73697;SDS011;62004;42.566;23.164;2022-08-25T12:10:11;20.50;;;3.63;;
73697;SDS011;62004;42.566;23.164;2022-08-25T12:15:18;16.15;;;4.05;;
73697;SDS011;62004;42.566;23.164;2022-08-25T12:23:26;23.15;;;4.20;;
73697;SDS011;62004;42.566;23.164;2022-08-25T12:26:02;19.70;;;4.05;;
73697;SDS011;62004;42.566;23.164;2022-08-25T12:31:45;14.68;;;3.63;;
73697;SDS011;62004;42.566;23.164;2022-08-25T12:34:22;14.38;;;3.55;;
73697;SDS011;62004;42.566;23.164;2022-08-25T12:37:15;17.80;;;3.80;;
73697;SDS011;62004;42.566;23.164;2022-08-25T12:42:24;14.35;;;3.25;;
73697;SDS011;62004;42.566;23.164;2022-08-25T12:50:25;13.45;;;3.83;;
73697;SDS011;62004;42.566;23.164;2022-08-25T12:55:39;12.82;;;3.50;;
73697;SDS011;62004;42.566;23.164;2022-08-25T12:58:09;12.82;;;3.30;;
73697;SDS011;62004;42.566;23.164;2022-08-25T13:06:14;11.60;;;2.95;;
73697;SDS011;62004;42.566;23.164;2022-08-25T13:11:52;14.70;;;2.90;;
73697;SDS011;62004;42.566;23.164;2022-08-25T13:14:28;13.80;;;3.20;;
73697;SDS011;62004;42.566;23.164;2022-08-25T13:16:58;13.15;;;2.97;;
73697;SDS011;62004;42.566;23.164;2022-08-25T13:19:25;18.63;;;2.83;;
73697;SDS011;62004;42.566;23.164;2022-08-25T13:21:51;15.38;;;3.60;;
73697;SDS011;62004;42.566;23.164;2022-08-25T13:24:20;17.52;;;3.20;;
73697;SDS011;62004;42.566;23.164;2022-08-25T13:26:49;17.13;;;3.75;;
73697;SDS011;62004;42.566;23.164;2022-08-25T13:29:52;16.02;;;2.85;;
73697;SDS011;62004;42.566;23.164;2022-08-25T13:32:23;18.60;;;3.33;;
73697;SDS011;62004;42.566;23.164;2022-08-25T13:37:52;12.65;;;3.08;;
73697;SDS011;62004;42.566;23.164;2022-08-25T13:42:51;16.55;;;3.28;;
73697;SDS011;62004;42.566;23.164;2022-08-25T13:45:20;18.80;;;3.72;;
73697;SDS011;62004;42.566;23.164;2022-08-25T13:47:48;10.68;;;3.33;;
73697;SDS011;62004;42.566;23.164;2022-08-25T13:53:03;15.52;;;3.42;;
73697;SDS011;62004;42.566;23.164;2022-08-25T13:58:12;11.75;;;2.83;;
73697;SDS011;62004;42.566;23.164;2022-08-25T14:07:26;15.95;;;3.30;;
73697;SDS011;62004;42.566;23.164;2022-08-25T14:13:29;16.90;;;3.55;;
73697;SDS011;62004;42.566;23.164;2022-08-25T14:16:05;15.70;;;3.10;;
73697;SDS011;62004;42.566;23.164;2022-08-25T14:22:12;23.55;;;3.17;;
73697;SDS011;62004;42.566;23.164;2022-08-25T14:24:44;13.98;;;3.80;;
73697;SDS011;62004;42.566;23.164;2022-08-25T14:27:28;13.45;;;3.38;;
73697;SDS011;62004;42.566;23.164;2022-08-25T14:29:59;11.50;;;3.05;;
73697;SDS011;62004;42.566;23.164;2022-08-25T14:32:28;21.25;;;3.30;;
73697;SDS011;62004;42.566;23.164;2022-08-25T14:38:09;14.15;;;2.58;;
73697;SDS011;62004;42.566;23.164;2022-08-25T14:44:15;20.45;;;3.20;;
73697;SDS011;62004;42.566;23.164;2022-08-25T14:47:27;12.30;;;3.20;;
73697;SDS011;62004;42.566;23.164;2022-08-25T14:50:00;12.32;;;2.53;;
73697;SDS011;62004;42.566;23.164;2022-08-25T14:52:39;16.90;;;3.28;;
73697;SDS011;62004;42.566;23.164;2022-08-25T14:55:08;10.02;;;3.20;;
73697;SDS011;62004;42.566;23.164;2022-08-25T14:57:55;14.77;;;3.13;;
73697;SDS011;62004;42.566;23.164;2022-08-25T15:00:20;22.25;;;3.40;;
73697;SDS011;62004;42.566;23.164;2022-08-25T15:02:46;17.08;;;3.03;;
73697;SDS011;62004;42.566;23.164;2022-08-25T15:05:18;13.80;;;3.00;;
73697;SDS011;62004;42.566;23.164;2022-08-25T15:07:55;14.63;;;3.15;;
73697;SDS011;62004;42.566;23.164;2022-08-25T15:10:39;11.85;;;3.33;;
73697;SDS011;62004;42.566;23.164;2022-08-25T15:13:07;14.75;;;3.72;;
73697;SDS011;62004;42.566;23.164;2022-08-25T15:15:39;15.77;;;2.60;;
73697;SDS011;62004;42.566;23.164;2022-08-25T15:18:07;11.55;;;3.05;;
73697;SDS011;62004;42.566;23.164;2022-08-25T15:20:33;19.13;;;3.30;;
73697;SDS011;62004;42.566;23.164;2022-08-25T15:22:59;17.83;;;2.88;;
73697;SDS011;62004;42.566;23.164;2022-08-25T15:25:24;12.73;;;3.45;;
73697;SDS011;62004;42.566;23.164;2022-08-25T15:27:50;8.85;;;2.75;;
73697;SDS011;62004;42.566;23.164;2022-08-25T15:30:16;14.45;;;3.28;;
73697;SDS011;62004;42.566;23.164;2022-08-25T15:32:41;16.23;;;2.80;;
73697;SDS011;62004;42.566;23.164;2022-08-25T15:35:07;15.82;;;3.50;;
73697;SDS011;62004;42.566;23.164;2022-08-25T15:37:32;9.52;;;2.67;;
73697;SDS011;62004;42.566;23.164;2022-08-25T15:39:59;11.32;;;2.95;;
73697;SDS011;62004;42.566;23.164;2022-08-25T15:42:26;21.27;;;3.47;;
73697;SDS011;62004;42.566;23.164;2022-08-25T15:44:53;14.02;;;3.17;;
73697;SDS011;62004;42.566;23.164;2022-08-25T15:47:18;14.63;;;3.10;;
73697;SDS011;62004;42.566;23.164;2022-08-25T15:49:44;13.15;;;2.63;;
73697;SDS011;62004;42.566;23.164;2022-08-25T15:52:09;9.88;;;3.25;;
73697;SDS011;62004;42.566;23.164;2022-08-25T15:54:36;19.30;;;3.55;;
73697;SDS011;62004;42.566;23.164;2022-08-25T15:57:01;13.82;;;3.42;;
73697;SDS011;62004;42.566;23.164;2022-08-25T15:59:39;12.75;;;2.72;;
73697;SDS011;62004;42.566;23.164;2022-08-25T16:02:05;11.77;;;3.55;;
73697;SDS011;62004;42.566;23.164;2022-08-25T16:04:30;19.80;;;3.15;;
73697;SDS011;62004;42.566;23.164;2022-08-25T16:06:56;15.13;;;3.20;;
73697;SDS011;62004;42.566;23.164;2022-08-25T16:09:24;19.33;;;2.92;;
73697;SDS011;62004;42.566;23.164;2022-08-25T16:11:50;16.85;;;3.00;;
73697;SDS011;62004;42.566;23.164;2022-08-25T16:14:16;12.68;;;3.33;;
73697;SDS011;62004;42.566;23.164;2022-08-25T16:16:42;14.35;;;4.20;;
73697;SDS011;62004;42.566;23.164;2022-08-25T16:19:07;17.48;;;3.78;;
73697;SDS011;62004;42.566;23.164;2022-08-25T16:21:33;15.48;;;3.50;;
73697;SDS011;62004;42.566;23.164;2022-08-25T16:24:02;13.75;;;3.10;;
73697;SDS011;62004;42.566;23.164;2022-08-25T16:26:29;14.60;;;3.30;;
73697;SDS011;62004;42.566;23.164;2022-08-25T16:28:54;12.65;;;3.58;;
73697;SDS011;62004;42.566;23.164;2022-08-25T16:31:20;15.52;;;3.65;;
73697;SDS011;62004;42.566;23.164;2022-08-25T16:33:49;21.98;;;3.20;;
73697;SDS011;62004;42.566;23.164;2022-08-25T16:36:16;16.80;;;3.03;;
73697;SDS011;62004;42.566;23.164;2022-08-25T16:38:43;14.95;;;3.80;;
73697;SDS011;62004;42.566;23.164;2022-08-25T16:41:11;15.93;;;3.40;;
73697;SDS011;62004;42.566;23.164;2022-08-25T16:43:38;13.23;;;2.83;;
73697;SDS011;62004;42.566;23.164;2022-08-25T16:46:06;16.88;;;3.13;;
73697;SDS011;62004;42.566;23.164;2022-08-25T16:48:35;11.68;;;2.72;;
73697;SDS011;62004;42.566;23.164;2022-08-25T16:51:09;14.68;;;2.83;;
73697;SDS011;62004;42.566;23.164;2022-08-25T16:53:36;14.48;;;3.97;;